sensor_id;sensor_type;location;lat;lon;timestamp;P1;durP1;ratioP1;P2;durP2;ratioP2
13866;SDS011;7003;46.982;15.248;2024-02-04T00:00:02;9.00;;;7.77;;
13866;SDS011;7003;46.982;15.248;2024-02-04T00:02:32;13.53;;;9.10;;
13866;SDS011;7003;46.982;15.248;2024-02-04T00:05:01;12.30;;;8.70;;
13866;SDS011;7003;46.982;15.248;2024-02-04T00:07:29;11.53;;;7.50;;
13866;SDS011;7003;46.982;15.248;2024-02-04T00:09:56;13.03;;;8.30;;
13866;SDS011;7003;46.982;15.248;2024-02-04T00:12:25;12.50;;;7.90;;
13866;SDS011;7003;46.982;15.248;2024-02-04T00:14:52;10.97;;;9.10;;
13866;SDS011;7003;46.982;15.248;2024-02-04T00:17:19;10.40;;;7.77;;
13866;SDS011;7003;46.982;15.248;2024-02-04T00:19:47;12.90;;;7.67;;
13866;SDS011;7003;46.982;15.248;2024-02-04T00:22:14;13.47;;;7.53;;
13866;SDS011;7003;46.982;15.248;2024-02-04T00:24:44;14.07;;;8.77;;
13866;SDS011;7003;46.982;15.248;2024-02-04T00:27:13;11.07;;;7.93;;
13866;SDS011;7003;46.982;15.248;2024-02-04T00:29:40;12.30;;;6.67;;
13866;SDS011;7003;46.982;15.248;2024-02-04T00:32:07;8.33;;;6.30;;
13866;SDS011;7003;46.982;15.248;2024-02-04T00:34:36;9.77;;;6.23;;
13866;SDS011;7003;46.982;15.248;2024-02-04T00:37:04;13.63;;;8.07;;
13866;SDS011;7003;46.982;15.248;2024-02-04T00:39:31;10.37;;;7.83;;
13866;SDS011;7003;46.982;15.248;2024-02-04T00:41:58;11.03;;;7.40;;
13866;SDS011;7003;46.982;15.248;2024-02-04T00:44:25;11.97;;;8.33;;
13866;SDS011;7003;46.982;15.248;2024-02-04T00:46:52;10.03;;;6.80;;
13866;SDS011;7003;46.982;15.248;2024-02-04T00:49:19;9.63;;;5.83;;
13866;SDS011;7003;46.982;15.248;2024-02-04T00:51:48;9.90;;;6.27;;
13866;SDS011;7003;46.982;15.248;2024-02-04T00:54:17;9.30;;;6.73;;
13866;SDS011;7003;46.982;15.248;2024-02-04T00:56:44;8.90;;;7.83;;
13866;SDS011;7003;46.982;15.248;2024-02-04T00:59:13;7.07;;;5.30;;
13866;SDS011;7003;46.982;15.248;2024-02-04T01:01:42;9.37;;;6.07;;
13866;SDS011;7003;46.982;15.248;2024-02-04T01:04:12;12.80;;;7.30;;
13866;SDS011;7003;46.982;15.248;2024-02-04T01:06:39;9.67;;;6.23;;
13866;SDS011;7003;46.982;15.248;2024-02-04T01:09:08;8.73;;;7.07;;
13866;SDS011;7003;46.982;15.248;2024-02-04T01:11:39;8.90;;;6.17;;
13866;SDS011;7003;46.982;15.248;2024-02-04T01:14:05;10.93;;;8.13;;
13866;SDS011;7003;46.982;15.248;2024-02-04T01:16:32;8.63;;;6.53;;
13866;SDS011;7003;46.982;15.248;2024-02-04T01:18:59;14.77;;;8.00;;
13866;SDS011;7003;46.982;15.248;2024-02-04T01:21:29;7.10;;;5.83;;
13866;SDS011;7003;46.982;15.248;2024-02-04T01:23:56;7.57;;;6.23;;
13866;SDS011;7003;46.982;15.248;2024-02-04T01:26:25;6.27;;;5.30;;
13866;SDS011;7003;46.982;15.248;2024-02-04T01:28:54;9.10;;;5.83;;
13866;SDS011;7003;46.982;15.248;2024-02-04T01:31:21;10.93;;;6.43;;
13866;SDS011;7003;46.982;15.248;2024-02-04T01:33:48;8.50;;;6.17;;
13866;SDS011;7003;46.982;15.248;2024-02-04T01:36:17;6.87;;;6.07;;
13866;SDS011;7003;46.982;15.248;2024-02-04T01:38:44;12.23;;;7.53;;
13866;SDS011;7003;46.982;15.248;2024-02-04T01:41:16;8.17;;;7.03;;
13866;SDS011;7003;46.982;15.248;2024-02-04T01:43:45;8.83;;;7.27;;
13866;SDS011;7003;46.982;15.248;2024-02-04T01:46:14;9.27;;;7.53;;
13866;SDS011;7003;46.982;15.248;2024-02-04T01:48:41;8.93;;;5.53;;
13866;SDS011;7003;46.982;15.248;2024-02-04T01:51:16;7.87;;;4.90;;
13866;SDS011;7003;46.982;15.248;2024-02-04T01:53:45;7.93;;;5.30;;
13866;SDS011;7003;46.982;15.248;2024-02-04T01:56:12;7.43;;;5.93;;
13866;SDS011;7003;46.982;15.248;2024-02-04T01:58:42;8.17;;;5.97;;
13866;SDS011;7003;46.982;15.248;2024-02-04T02:01:10;6.53;;;5.97;;
13866;SDS011;7003;46.982;15.248;2024-02-04T02:03:44;10.53;;;6.33;;
13866;SDS011;7003;46.982;15.248;2024-02-04T02:06:15;8.97;;;6.17;;
13866;SDS011;7003;46.982;15.248;2024-02-04T02:09:03;9.10;;;5.93;;
13866;SDS011;7003;46.982;15.248;2024-02-04T02:11:36;9.50;;;7.53;;
13866;SDS011;7003;46.982;15.248;2024-02-04T02:14:11;14.73;;;7.40;;
13866;SDS011;7003;46.982;15.248;2024-02-04T02:16:45;8.40;;;6.97;;
13866;SDS011;7003;46.982;15.248;2024-02-04T02:19:21;14.70;;;7.70;;
13866;SDS011;7003;46.982;15.248;2024-02-04T02:22:04;8.93;;;5.67;;
13866;SDS011;7003;46.982;15.248;2024-02-04T02:24:43;10.13;;;7.37;;
13866;SDS011;7003;46.982;15.248;2024-02-04T02:27:13;7.77;;;5.97;;
13866;SDS011;7003;46.982;15.248;2024-02-04T02:29:42;11.77;;;6.03;;
13866;SDS011;7003;46.982;15.248;2024-02-04T02:32:13;10.23;;;6.60;;
13866;SDS011;7003;46.982;15.248;2024-02-04T02:34:40;9.27;;;7.40;;
13866;SDS011;7003;46.982;15.248;2024-02-04T02:37:12;11.87;;;7.90;;
13866;SDS011;7003;46.982;15.248;2024-02-04T02:39:53;11.67;;;6.80;;
13866;SDS011;7003;46.982;15.248;2024-02-04T02:42:27;7.37;;;5.00;;
13866;SDS011;7003;46.982;15.248;2024-02-04T02:44:56;9.57;;;7.10;;
13866;SDS011;7003;46.982;15.248;2024-02-04T02:47:24;9.80;;;6.37;;
13866;SDS011;7003;46.982;15.248;2024-02-04T02:49:55;11.63;;;6.57;;
13866;SDS011;7003;46.982;15.248;2024-02-04T02:52:23;15.07;;;10.20;;
13866;SDS011;7003;46.982;15.248;2024-02-04T02:54:53;9.20;;;6.10;;
13866;SDS011;7003;46.982;15.248;2024-02-04T02:57:23;6.77;;;6.17;;
13866;SDS011;7003;46.982;15.248;2024-02-04T02:59:50;9.53;;;6.43;;
13866;SDS011;7003;46.982;15.248;2024-02-04T03:02:17;6.00;;;4.43;;
13866;SDS011;7003;46.982;15.248;2024-02-04T03:04:44;12.27;;;7.20;;
13866;SDS011;7003;46.982;15.248;2024-02-04T03:07:11;8.23;;;7.47;;
13866;SDS011;7003;46.982;15.248;2024-02-04T03:09:40;8.90;;;6.23;;
13866;SDS011;7003;46.982;15.248;2024-02-04T03:12:10;11.50;;;8.10;;
13866;SDS011;7003;46.982;15.248;2024-02-04T03:14:40;7.67;;;5.77;;
13866;SDS011;7003;46.982;15.248;2024-02-04T03:17:08;7.27;;;6.17;;
13866;SDS011;7003;46.982;15.248;2024-02-04T03:19:35;13.00;;;8.13;;
13866;SDS011;7003;46.982;15.248;2024-02-04T03:22:11;11.30;;;6.23;;
13866;SDS011;7003;46.982;15.248;2024-02-04T03:24:39;9.57;;;6.83;;
13866;SDS011;7003;46.982;15.248;2024-02-04T03:27:18;12.47;;;6.77;;
13866;SDS011;7003;46.982;15.248;2024-02-04T03:29:46;14.77;;;7.50;;
13866;SDS011;7003;46.982;15.248;2024-02-04T03:32:13;7.07;;;6.07;;
13866;SDS011;7003;46.982;15.248;2024-02-04T03:34:41;8.90;;;5.60;;
13866;SDS011;7003;46.982;15.248;2024-02-04T03:37:08;8.33;;;7.50;;
13866;SDS011;7003;46.982;15.248;2024-02-04T03:39:38;8.40;;;5.87;;
13866;SDS011;7003;46.982;15.248;2024-02-04T03:42:05;9.37;;;5.63;;
13866;SDS011;7003;46.982;15.248;2024-02-04T03:44:33;10.27;;;6.70;;
13866;SDS011;7003;46.982;15.248;2024-02-04T03:47:03;7.67;;;6.90;;
13866;SDS011;7003;46.982;15.248;2024-02-04T03:49:30;6.17;;;4.73;;
13866;SDS011;7003;46.982;15.248;2024-02-04T03:51:58;9.90;;;7.10;;
13866;SDS011;7003;46.982;15.248;2024-02-04T03:54:27;7.50;;;6.57;;
13866;SDS011;7003;46.982;15.248;2024-02-04T03:56:55;10.17;;;6.60;;
13866;SDS011;7003;46.982;15.248;2024-02-04T03:59:22;9.73;;;6.37;;
13866;SDS011;7003;46.982;15.248;2024-02-04T04:01:53;7.57;;;6.07;;
13866;SDS011;7003;46.982;15.248;2024-02-04T04:04:22;7.33;;;4.73;;
13866;SDS011;7003;46.982;15.248;2024-02-04T04:06:51;5.33;;;4.83;;
13866;SDS011;7003;46.982;15.248;2024-02-04T04:09:18;8.77;;;5.73;;
13866;SDS011;7003;46.982;15.248;2024-02-04T04:11:45;10.47;;;6.33;;
13866;SDS011;7003;46.982;15.248;2024-02-04T04:14:15;10.90;;;6.93;;
13866;SDS011;7003;46.982;15.248;2024-02-04T04:16:42;9.83;;;6.63;;
13866;SDS011;7003;46.982;15.248;2024-02-04T04:19:10;9.47;;;5.97;;
13866;SDS011;7003;46.982;15.248;2024-02-04T04:21:37;11.57;;;5.70;;
13866;SDS011;7003;46.982;15.248;2024-02-04T04:24:08;12.40;;;6.90;;
13866;SDS011;7003;46.982;15.248;2024-02-04T04:26:37;7.97;;;7.17;;
13866;SDS011;7003;46.982;15.248;2024-02-04T04:29:04;8.87;;;6.87;;
13866;SDS011;7003;46.982;15.248;2024-02-04T04:31:31;4.70;;;4.23;;
13866;SDS011;7003;46.982;15.248;2024-02-04T04:34:00;9.70;;;5.13;;
13866;SDS011;7003;46.982;15.248;2024-02-04T04:36:29;6.47;;;4.37;;
13866;SDS011;7003;46.982;15.248;2024-02-04T04:38:56;7.37;;;5.20;;
13866;SDS011;7003;46.982;15.248;2024-02-04T04:41:23;10.77;;;5.53;;
13866;SDS011;7003;46.982;15.248;2024-02-04T04:43:50;9.20;;;5.27;;
13866;SDS011;7003;46.982;15.248;2024-02-04T04:46:16;7.50;;;5.00;;
13866;SDS011;7003;46.982;15.248;2024-02-04T04:48:44;5.27;;;4.53;;
13866;SDS011;7003;46.982;15.248;2024-02-04T04:51:10;6.73;;;5.53;;
13866;SDS011;7003;46.982;15.248;2024-02-04T04:53:43;8.67;;;5.07;;
13866;SDS011;7003;46.982;15.248;2024-02-04T04:56:12;8.30;;;5.87;;
13866;SDS011;7003;46.982;15.248;2024-02-04T04:58:39;5.67;;;4.70;;
13866;SDS011;7003;46.982;15.248;2024-02-04T05:01:08;9.87;;;6.00;;
13866;SDS011;7003;46.982;15.248;2024-02-04T05:03:38;9.57;;;5.17;;
13866;SDS011;7003;46.982;15.248;2024-02-04T05:06:06;7.57;;;6.07;;
13866;SDS011;7003;46.982;15.248;2024-02-04T05:08:33;7.57;;;5.27;;
13866;SDS011;7003;46.982;15.248;2024-02-04T05:11:01;6.03;;;4.47;;
13866;SDS011;7003;46.982;15.248;2024-02-04T05:13:29;6.93;;;5.37;;
13866;SDS011;7003;46.982;15.248;2024-02-04T05:15:56;5.23;;;4.70;;
13866;SDS011;7003;46.982;15.248;2024-02-04T05:18:23;8.13;;;4.43;;
13866;SDS011;7003;46.982;15.248;2024-02-04T05:20:54;7.47;;;5.53;;
13866;SDS011;7003;46.982;15.248;2024-02-04T05:23:21;6.67;;;5.50;;
13866;SDS011;7003;46.982;15.248;2024-02-04T05:25:48;5.97;;;4.00;;
13866;SDS011;7003;46.982;15.248;2024-02-04T05:28:17;6.30;;;5.07;;
13866;SDS011;7003;46.982;15.248;2024-02-04T05:30:44;7.10;;;6.10;;
13866;SDS011;7003;46.982;15.248;2024-02-04T05:33:13;6.73;;;5.23;;
13866;SDS011;7003;46.982;15.248;2024-02-04T05:35:41;5.37;;;4.23;;
13866;SDS011;7003;46.982;15.248;2024-02-04T05:38:10;6.07;;;4.43;;
13866;SDS011;7003;46.982;15.248;2024-02-04T05:40:37;6.60;;;5.93;;
13866;SDS011;7003;46.982;15.248;2024-02-04T05:43:05;6.13;;;4.70;;
13866;SDS011;7003;46.982;15.248;2024-02-04T05:45:38;9.87;;;6.43;;
13866;SDS011;7003;46.982;15.248;2024-02-04T05:48:08;12.40;;;5.67;;
13866;SDS011;7003;46.982;15.248;2024-02-04T05:50:35;9.10;;;4.57;;
13866;SDS011;7003;46.982;15.248;2024-02-04T05:53:05;6.60;;;3.63;;
13866;SDS011;7003;46.982;15.248;2024-02-04T05:55:34;16.33;;;8.13;;
13866;SDS011;7003;46.982;15.248;2024-02-04T05:58:01;7.87;;;5.80;;
13866;SDS011;7003;46.982;15.248;2024-02-04T06:00:28;5.50;;;4.67;;
13866;SDS011;7003;46.982;15.248;2024-02-04T06:02:57;6.40;;;3.67;;
13866;SDS011;7003;46.982;15.248;2024-02-04T06:05:24;8.60;;;7.13;;
13866;SDS011;7003;46.982;15.248;2024-02-04T06:07:54;7.03;;;6.33;;
13866;SDS011;7003;46.982;15.248;2024-02-04T06:10:21;8.90;;;5.40;;
13866;SDS011;7003;46.982;15.248;2024-02-04T06:12:51;7.83;;;4.77;;
13866;SDS011;7003;46.982;15.248;2024-02-04T06:15:21;5.83;;;4.83;;
13866;SDS011;7003;46.982;15.248;2024-02-04T06:17:49;8.83;;;4.43;;
13866;SDS011;7003;46.982;15.248;2024-02-04T06:20:20;4.83;;;4.13;;
13866;SDS011;7003;46.982;15.248;2024-02-04T06:22:48;4.97;;;4.33;;
13866;SDS011;7003;46.982;15.248;2024-02-04T06:25:19;8.40;;;6.20;;
13866;SDS011;7003;46.982;15.248;2024-02-04T06:28:06;8.53;;;6.23;;
13866;SDS011;7003;46.982;15.248;2024-02-04T06:30:52;9.30;;;5.27;;
13866;SDS011;7003;46.982;15.248;2024-02-04T06:33:21;10.43;;;6.50;;
13866;SDS011;7003;46.982;15.248;2024-02-04T06:35:54;12.40;;;6.43;;
13866;SDS011;7003;46.982;15.248;2024-02-04T06:38:41;8.23;;;5.70;;
13866;SDS011;7003;46.982;15.248;2024-02-04T06:41:29;11.10;;;8.23;;
13866;SDS011;7003;46.982;15.248;2024-02-04T06:44:18;8.30;;;5.43;;
13866;SDS011;7003;46.982;15.248;2024-02-04T06:47:08;7.57;;;6.17;;
13866;SDS011;7003;46.982;15.248;2024-02-04T06:49:58;11.50;;;7.60;;
13866;SDS011;7003;46.982;15.248;2024-02-04T06:52:30;9.63;;;7.00;;
13866;SDS011;7003;46.982;15.248;2024-02-04T06:55:19;10.40;;;5.30;;
13866;SDS011;7003;46.982;15.248;2024-02-04T06:57:48;9.17;;;6.03;;
13866;SDS011;7003;46.982;15.248;2024-02-04T07:00:16;10.47;;;5.87;;
13866;SDS011;7003;46.982;15.248;2024-02-04T07:02:43;10.23;;;7.50;;
13866;SDS011;7003;46.982;15.248;2024-02-04T07:05:13;10.50;;;7.90;;
13866;SDS011;7003;46.982;15.248;2024-02-04T07:07:42;5.80;;;5.23;;
13866;SDS011;7003;46.982;15.248;2024-02-04T07:10:10;9.13;;;7.17;;
13866;SDS011;7003;46.982;15.248;2024-02-04T07:12:37;7.97;;;6.20;;
13866;SDS011;7003;46.982;15.248;2024-02-04T07:15:07;7.50;;;6.17;;
13866;SDS011;7003;46.982;15.248;2024-02-04T07:17:35;8.57;;;6.60;;
13866;SDS011;7003;46.982;15.248;2024-02-04T07:20:02;8.73;;;7.33;;
13866;SDS011;7003;46.982;15.248;2024-02-04T07:22:31;6.97;;;5.87;;
13866;SDS011;7003;46.982;15.248;2024-02-04T07:25:03;11.90;;;8.60;;
13866;SDS011;7003;46.982;15.248;2024-02-04T07:27:30;12.17;;;8.07;;
13866;SDS011;7003;46.982;15.248;2024-02-04T07:30:00;9.53;;;6.10;;
13866;SDS011;7003;46.982;15.248;2024-02-04T07:32:29;17.70;;;9.03;;
13866;SDS011;7003;46.982;15.248;2024-02-04T07:34:56;9.20;;;7.97;;
13866;SDS011;7003;46.982;15.248;2024-02-04T07:37:24;10.50;;;9.17;;
13866;SDS011;7003;46.982;15.248;2024-02-04T07:39:51;11.93;;;9.77;;
13866;SDS011;7003;46.982;15.248;2024-02-04T07:42:20;14.97;;;9.73;;
13866;SDS011;7003;46.982;15.248;2024-02-04T07:44:48;11.20;;;8.90;;
13866;SDS011;7003;46.982;15.248;2024-02-04T07:47:18;12.10;;;9.10;;
13866;SDS011;7003;46.982;15.248;2024-02-04T07:49:49;14.73;;;8.87;;
13866;SDS011;7003;46.982;15.248;2024-02-04T07:52:16;13.20;;;9.80;;
13866;SDS011;7003;46.982;15.248;2024-02-04T07:54:46;12.33;;;9.27;;
13866;SDS011;7003;46.982;15.248;2024-02-04T07:57:16;11.23;;;9.23;;
13866;SDS011;7003;46.982;15.248;2024-02-04T07:59:45;10.70;;;7.93;;
13866;SDS011;7003;46.982;15.248;2024-02-04T08:02:14;10.57;;;8.43;;
13866;SDS011;7003;46.982;15.248;2024-02-04T08:04:41;20.17;;;10.83;;
13866;SDS011;7003;46.982;15.248;2024-02-04T08:07:08;14.50;;;10.03;;
13866;SDS011;7003;46.982;15.248;2024-02-04T08:09:36;17.47;;;10.00;;
13866;SDS011;7003;46.982;15.248;2024-02-04T08:12:04;18.43;;;13.53;;
13866;SDS011;7003;46.982;15.248;2024-02-04T08:14:34;15.67;;;9.97;;
13866;SDS011;7003;46.982;15.248;2024-02-04T08:17:03;16.37;;;11.20;;
13866;SDS011;7003;46.982;15.248;2024-02-04T08:19:33;20.47;;;11.87;;
13866;SDS011;7003;46.982;15.248;2024-02-04T08:22:03;13.23;;;11.90;;
13866;SDS011;7003;46.982;15.248;2024-02-04T08:24:33;26.07;;;13.43;;
13866;SDS011;7003;46.982;15.248;2024-02-04T08:27:04;22.20;;;15.00;;
13866;SDS011;7003;46.982;15.248;2024-02-04T08:29:32;15.80;;;12.57;;
13866;SDS011;7003;46.982;15.248;2024-02-04T08:31:59;14.70;;;11.20;;
13866;SDS011;7003;46.982;15.248;2024-02-04T08:34:28;16.53;;;12.27;;
13866;SDS011;7003;46.982;15.248;2024-02-04T08:36:55;16.37;;;12.40;;
13866;SDS011;7003;46.982;15.248;2024-02-04T08:39:23;11.93;;;10.67;;
13866;SDS011;7003;46.982;15.248;2024-02-04T08:41:55;13.57;;;10.33;;
13866;SDS011;7003;46.982;15.248;2024-02-04T08:44:25;9.90;;;8.87;;
13866;SDS011;7003;46.982;15.248;2024-02-04T08:46:55;15.50;;;10.03;;
13866;SDS011;7003;46.982;15.248;2024-02-04T08:49:44;11.87;;;9.40;;
13866;SDS011;7003;46.982;15.248;2024-02-04T08:52:31;10.50;;;9.43;;
13866;SDS011;7003;46.982;15.248;2024-02-04T08:55:20;9.27;;;7.83;;
13866;SDS011;7003;46.982;15.248;2024-02-04T08:58:12;13.10;;;9.00;;
13866;SDS011;7003;46.982;15.248;2024-02-04T09:00:42;9.47;;;8.53;;
13866;SDS011;7003;46.982;15.248;2024-02-04T09:03:29;23.03;;;10.20;;
13866;SDS011;7003;46.982;15.248;2024-02-04T09:06:01;16.87;;;9.17;;
13866;SDS011;7003;46.982;15.248;2024-02-04T09:08:37;15.23;;;10.70;;
13866;SDS011;7003;46.982;15.248;2024-02-04T09:11:04;16.63;;;10.93;;
13866;SDS011;7003;46.982;15.248;2024-02-04T09:13:50;17.83;;;11.95;;
13866;SDS011;7003;46.982;15.248;2024-02-04T09:16:37;16.77;;;10.32;;
13866;SDS011;7003;46.982;15.248;2024-02-04T09:19:26;11.23;;;9.05;;
13866;SDS011;7003;46.982;15.248;2024-02-04T09:21:59;15.55;;;9.90;;
13866;SDS011;7003;46.982;15.248;2024-02-04T09:24:29;17.48;;;10.30;;
13866;SDS011;7003;46.982;15.248;2024-02-04T09:26:59;9.52;;;8.07;;
13866;SDS011;7003;46.982;15.248;2024-02-04T09:29:26;16.85;;;9.57;;
13866;SDS011;7003;46.982;15.248;2024-02-04T09:31:53;10.50;;;8.70;;
13866;SDS011;7003;46.982;15.248;2024-02-04T09:34:21;12.13;;;8.32;;
13866;SDS011;7003;46.982;15.248;2024-02-04T09:36:49;12.02;;;9.38;;
13866;SDS011;7003;46.982;15.248;2024-02-04T09:39:20;13.20;;;9.32;;
13866;SDS011;7003;46.982;15.248;2024-02-04T09:41:47;13.20;;;9.68;;
13866;SDS011;7003;46.982;15.248;2024-02-04T09:44:17;13.63;;;10.02;;
13866;SDS011;7003;46.982;15.248;2024-02-04T09:46:47;10.93;;;9.27;;
13866;SDS011;7003;46.982;15.248;2024-02-04T09:49:15;17.48;;;10.45;;
13866;SDS011;7003;46.982;15.248;2024-02-04T09:51:43;17.35;;;9.48;;
13866;SDS011;7003;46.982;15.248;2024-02-04T09:54:11;16.38;;;10.52;;
13866;SDS011;7003;46.982;15.248;2024-02-04T09:56:45;15.38;;;10.85;;
13866;SDS011;7003;46.982;15.248;2024-02-04T09:59:16;14.13;;;11.07;;
13866;SDS011;7003;46.982;15.248;2024-02-04T10:01:44;16.25;;;10.75;;
13866;SDS011;7003;46.982;15.248;2024-02-04T10:04:12;16.80;;;10.82;;
13866;SDS011;7003;46.982;15.248;2024-02-04T10:06:39;14.68;;;11.55;;
13866;SDS011;7003;46.982;15.248;2024-02-04T10:09:06;14.82;;;11.38;;
13866;SDS011;7003;46.982;15.248;2024-02-04T10:11:34;17.08;;;10.52;;
13866;SDS011;7003;46.982;15.248;2024-02-04T10:14:03;15.35;;;11.23;;
13866;SDS011;7003;46.982;15.248;2024-02-04T10:16:35;15.73;;;9.85;;
13866;SDS011;7003;46.982;15.248;2024-02-04T10:19:04;13.95;;;10.20;;
13866;SDS011;7003;46.982;15.248;2024-02-04T10:21:32;15.48;;;12.48;;
13866;SDS011;7003;46.982;15.248;2024-02-04T10:24:00;17.40;;;9.80;;
13866;SDS011;7003;46.982;15.248;2024-02-04T10:26:28;15.38;;;10.93;;
13866;SDS011;7003;46.982;15.248;2024-02-04T10:28:59;14.25;;;10.27;;
13866;SDS011;7003;46.982;15.248;2024-02-04T10:31:28;17.85;;;11.25;;
13866;SDS011;7003;46.982;15.248;2024-02-04T10:33:58;16.00;;;10.77;;
13866;SDS011;7003;46.982;15.248;2024-02-04T10:36:27;15.55;;;9.88;;
13866;SDS011;7003;46.982;15.248;2024-02-04T10:39:00;8.27;;;6.88;;
13866;SDS011;7003;46.982;15.248;2024-02-04T10:41:30;9.18;;;6.65;;
13866;SDS011;7003;46.982;15.248;2024-02-04T10:44:03;7.40;;;5.95;;
13866;SDS011;7003;46.982;15.248;2024-02-04T10:46:34;6.32;;;4.90;;
13866;SDS011;7003;46.982;15.248;2024-02-04T10:49:07;8.15;;;6.70;;
13866;SDS011;7003;46.982;15.248;2024-02-04T10:51:43;8.52;;;6.15;;
13866;SDS011;7003;46.982;15.248;2024-02-04T10:54:15;7.80;;;6.00;;
13866;SDS011;7003;46.982;15.248;2024-02-04T10:56:43;7.70;;;6.38;;
13866;SDS011;7003;46.982;15.248;2024-02-04T10:59:14;5.20;;;4.43;;
13866;SDS011;7003;46.982;15.248;2024-02-04T11:01:48;6.20;;;4.43;;
13866;SDS011;7003;46.982;15.248;2024-02-04T11:04:18;5.18;;;4.13;;
13866;SDS011;7003;46.982;15.248;2024-02-04T11:06:46;5.80;;;4.63;;
13866;SDS011;7003;46.982;15.248;2024-02-04T11:09:19;5.18;;;4.03;;
13866;SDS011;7003;46.982;15.248;2024-02-04T11:11:48;5.35;;;4.57;;
13866;SDS011;7003;46.982;15.248;2024-02-04T11:14:18;4.95;;;4.13;;
13866;SDS011;7003;46.982;15.248;2024-02-04T11:16:57;5.03;;;3.60;;
13866;SDS011;7003;46.982;15.248;2024-02-04T11:19:47;6.20;;;3.13;;
13866;SDS011;7003;46.982;15.248;2024-02-04T11:22:39;4.30;;;3.42;;
13866;SDS011;7003;46.982;15.248;2024-02-04T11:25:25;5.28;;;3.60;;
13866;SDS011;7003;46.982;15.248;2024-02-04T11:28:13;4.30;;;3.42;;
13866;SDS011;7003;46.982;15.248;2024-02-04T11:30:44;3.95;;;3.03;;
13866;SDS011;7003;46.982;15.248;2024-02-04T11:33:18;4.43;;;3.78;;
13866;SDS011;7003;46.982;15.248;2024-02-04T11:35:59;5.47;;;3.50;;
13866;SDS011;7003;46.982;15.248;2024-02-04T11:38:35;4.72;;;3.40;;
13866;SDS011;7003;46.982;15.248;2024-02-04T11:41:04;9.10;;;4.82;;
13866;SDS011;7003;46.982;15.248;2024-02-04T11:43:33;4.68;;;3.92;;
13866;SDS011;7003;46.982;15.248;2024-02-04T11:46:04;3.85;;;3.55;;
13866;SDS011;7003;46.982;15.248;2024-02-04T11:48:37;3.95;;;3.53;;
13866;SDS011;7003;46.982;15.248;2024-02-04T11:51:05;5.72;;;3.72;;
13866;SDS011;7003;46.982;15.248;2024-02-04T11:53:33;8.55;;;3.55;;
13866;SDS011;7003;46.982;15.248;2024-02-04T11:56:01;5.28;;;4.45;;
13866;SDS011;7003;46.982;15.248;2024-02-04T11:58:30;7.85;;;4.20;;
13866;SDS011;7003;46.982;15.248;2024-02-04T12:00:59;4.80;;;3.47;;
13866;SDS011;7003;46.982;15.248;2024-02-04T12:03:32;4.35;;;2.95;;
13866;SDS011;7003;46.982;15.248;2024-02-04T12:06:03;3.83;;;3.03;;
13866;SDS011;7003;46.982;15.248;2024-02-04T12:08:35;6.03;;;3.35;;
13866;SDS011;7003;46.982;15.248;2024-02-04T12:11:05;7.95;;;4.20;;
13866;SDS011;7003;46.982;15.248;2024-02-04T12:13:35;3.47;;;3.13;;
13866;SDS011;7003;46.982;15.248;2024-02-04T12:16:07;7.43;;;4.07;;
13866;SDS011;7003;46.982;15.248;2024-02-04T12:18:36;5.00;;;4.13;;
13866;SDS011;7003;46.982;15.248;2024-02-04T12:21:15;4.38;;;3.83;;
13866;SDS011;7003;46.982;15.248;2024-02-04T12:23:44;5.65;;;4.63;;
13866;SDS011;7003;46.982;15.248;2024-02-04T12:26:13;4.60;;;4.13;;
13866;SDS011;7003;46.982;15.248;2024-02-04T12:28:42;4.70;;;4.30;;
13866;SDS011;7003;46.982;15.248;2024-02-04T12:31:16;7.00;;;4.43;;
13866;SDS011;7003;46.982;15.248;2024-02-04T12:33:54;6.32;;;4.90;;
13866;SDS011;7003;46.982;15.248;2024-02-04T12:36:28;7.43;;;4.35;;
13866;SDS011;7003;46.982;15.248;2024-02-04T12:38:59;5.95;;;4.60;;
13866;SDS011;7003;46.982;15.248;2024-02-04T12:41:29;9.18;;;4.65;;
13866;SDS011;7003;46.982;15.248;2024-02-04T12:44:00;8.45;;;5.00;;
13866;SDS011;7003;46.982;15.248;2024-02-04T12:46:33;5.75;;;4.95;;
13866;SDS011;7003;46.982;15.248;2024-02-04T12:49:01;7.72;;;4.97;;
13866;SDS011;7003;46.982;15.248;2024-02-04T12:51:31;5.55;;;4.78;;
13866;SDS011;7003;46.982;15.248;2024-02-04T12:54:02;6.68;;;5.05;;
13866;SDS011;7003;46.982;15.248;2024-02-04T12:56:40;6.82;;;4.13;;
13866;SDS011;7003;46.982;15.248;2024-02-04T12:59:10;5.35;;;3.72;;
13866;SDS011;7003;46.982;15.248;2024-02-04T13:01:38;6.70;;;4.53;;
13866;SDS011;7003;46.982;15.248;2024-02-04T13:04:06;5.57;;;4.35;;
13866;SDS011;7003;46.982;15.248;2024-02-04T13:06:39;6.10;;;3.85;;
13866;SDS011;7003;46.982;15.248;2024-02-04T13:09:09;6.07;;;3.10;;
13866;SDS011;7003;46.982;15.248;2024-02-04T13:11:40;5.72;;;3.90;;
13866;SDS011;7003;46.982;15.248;2024-02-04T13:14:11;5.25;;;3.13;;
13866;SDS011;7003;46.982;15.248;2024-02-04T13:16:40;4.63;;;3.22;;
13866;SDS011;7003;46.982;15.248;2024-02-04T13:19:08;5.18;;;2.80;;
13866;SDS011;7003;46.982;15.248;2024-02-04T13:21:36;4.68;;;3.55;;
13866;SDS011;7003;46.982;15.248;2024-02-04T13:24:05;4.82;;;2.85;;
13866;SDS011;7003;46.982;15.248;2024-02-04T13:26:34;4.72;;;3.47;;
13866;SDS011;7003;46.982;15.248;2024-02-04T13:29:09;13.60;;;4.18;;
13866;SDS011;7003;46.982;15.248;2024-02-04T13:31:38;5.50;;;3.40;;
13866;SDS011;7003;46.982;15.248;2024-02-04T13:34:06;5.32;;;3.65;;
13866;SDS011;7003;46.982;15.248;2024-02-04T13:36:41;4.63;;;3.47;;
13866;SDS011;7003;46.982;15.248;2024-02-04T14:13:34;4.90;;;4.03;;
13866;SDS011;7003;46.982;15.248;2024-02-04T14:16:13;4.43;;;3.15;;
13866;SDS011;7003;46.982;15.248;2024-02-04T14:18:42;4.93;;;3.25;;
13866;SDS011;7003;46.982;15.248;2024-02-04T14:21:22;4.00;;;3.10;;
13866;SDS011;7003;46.982;15.248;2024-02-04T14:23:52;6.25;;;4.20;;
13866;SDS011;7003;46.982;15.248;2024-02-04T14:26:22;3.70;;;2.92;;
13866;SDS011;7003;46.982;15.248;2024-02-04T14:28:54;13.43;;;4.82;;
13866;SDS011;7003;46.982;15.248;2024-02-04T14:31:23;8.75;;;4.90;;
13866;SDS011;7003;46.982;15.248;2024-02-04T14:33:53;6.80;;;4.28;;
13866;SDS011;7003;46.982;15.248;2024-02-04T14:36:23;6.55;;;3.53;;
13866;SDS011;7003;46.982;15.248;2024-02-04T14:38:53;13.98;;;4.38;;
13866;SDS011;7003;46.982;15.248;2024-02-04T14:41:26;4.50;;;4.00;;
13866;SDS011;7003;46.982;15.248;2024-02-04T14:44:00;7.55;;;3.35;;
13866;SDS011;7003;46.982;15.248;2024-02-04T14:46:32;4.25;;;3.22;;
13866;SDS011;7003;46.982;15.248;2024-02-04T14:49:04;9.98;;;3.47;;
13866;SDS011;7003;46.982;15.248;2024-02-04T14:51:38;5.90;;;3.45;;
13866;SDS011;7003;46.982;15.248;2024-02-04T14:54:07;3.47;;;2.75;;
13866;SDS011;7003;46.982;15.248;2024-02-04T14:56:40;9.77;;;3.72;;
13866;SDS011;7003;46.982;15.248;2024-02-04T14:59:15;6.20;;;3.63;;
13866;SDS011;7003;46.982;15.248;2024-02-04T15:01:44;5.07;;;3.38;;
13866;SDS011;7003;46.982;15.248;2024-02-04T15:04:15;5.50;;;4.68;;
13866;SDS011;7003;46.982;15.248;2024-02-04T15:06:45;8.60;;;3.85;;
13866;SDS011;7003;46.982;15.248;2024-02-04T15:09:19;8.32;;;3.78;;
13866;SDS011;7003;46.982;15.248;2024-02-04T15:11:52;6.63;;;4.90;;
13866;SDS011;7003;46.982;15.248;2024-02-04T15:14:24;5.93;;;4.15;;
13866;SDS011;7003;46.982;15.248;2024-02-04T15:16:54;8.20;;;5.32;;
13866;SDS011;7003;46.982;15.248;2024-02-04T15:19:25;6.20;;;4.57;;
13866;SDS011;7003;46.982;15.248;2024-02-04T15:21:59;8.23;;;5.75;;
13866;SDS011;7003;46.982;15.248;2024-02-04T15:24:32;6.22;;;4.15;;
13866;SDS011;7003;46.982;15.248;2024-02-04T15:27:05;39.40;;;20.23;;
13866;SDS011;7003;46.982;15.248;2024-02-04T15:29:40;10.38;;;7.18;;
13866;SDS011;7003;46.982;15.248;2024-02-04T15:32:12;7.78;;;3.75;;
13866;SDS011;7003;46.982;15.248;2024-02-04T15:34:45;12.32;;;4.30;;